Time;durP1;ratioP1;P1;durP2;ratioP2;P2;SDS_P1;SDS_P2;PMS_P1;PMS_P2;Temp;Humidity;BMP_temperature;BMP_pressure;BME280_temperature;BME280_humidity;BME280_pressure;Samples;Min_cycle;Max_cycle;Signal;HPM_P1;HPM_P2
2021/07/20 00:00:58;;;;;;;7.27;4.70;;;;;;;;;;5017669;28;20234;-60
2021/07/20 00:03:23;;;;;;;7.47;5.77;;;;;;;;;;5018168;28;20647;-58
2021/07/20 00:05:48;;;;;;;6.13;4.27;;;;;;;;;;5018060;28;20297;-59
2021/07/20 00:08:14;;;;;;;5.33;4.03;;;;;;;;;;5017543;28;20222;-60
2021/07/20 00:10:49;;;;;;;4.77;4.17;;;;;;;;;;5017757;28;20218;-60
2021/07/20 00:13:14;;;;;;;9.27;6.17;;;;;;;;;;5017540;28;20229;-59
2021/07/20 00:15:40;;;;;;;5.40;4.90;;;;;;;;;;5017705;28;20465;-60
2021/07/20 00:18:08;;;;;;;5.70;4.83;;;;;;;;;;5017439;28;20313;-60
2021/07/20 00:20:34;;;;;;;5.60;4.67;;;;;;;;;;5017451;28;20586;-60
2021/07/20 00:22:59;;;;;;;9.17;5.30;;;;;;;;;;5017282;28;20475;-60
2021/07/20 00:25:24;;;;;;;5.70;5.13;;;;;;;;;;5017573;28;20268;-59
2021/07/20 00:27:49;;;;;;;9.87;5.30;;;;;;;;;;5017704;28;20234;-59
2021/07/20 00:30:15;;;;;;;9.60;5.30;;;;;;;;;;5017015;28;20222;-60
2021/07/20 00:32:41;;;;;;;6.00;4.63;;;;;;;;;;5017457;28;20646;-60
2021/07/20 00:35:09;;;;;;;6.53;5.93;;;;;;;;;;5017085;28;20556;-60
2021/07/20 00:37:35;;;;;;;6.83;4.77;;;;;;;;;;5017306;28;20458;-60
2021/07/20 00:40:01;;;;;;;5.90;4.90;;;;;;;;;;5016743;28;20505;-60
2021/07/20 00:42:26;;;;;;;13.03;5.40;;;;;;;;;;5017537;28;20544;-60
2021/07/20 00:44:51;;;;;;;5.27;4.77;;;;;;;;;;5017375;28;20219;-60
2021/07/20 00:47:17;;;;;;;4.40;4.00;;;;;;;;;;5027247;28;20240;-60
2021/07/20 00:49:43;;;;;;;5.60;4.00;;;;;;;;;;5036805;28;20635;-60
2021/07/20 00:52:08;;;;;;;5.37;4.57;;;;;;;;;;5036429;28;20521;-60
2021/07/20 00:54:34;;;;;;;6.30;4.90;;;;;;;;;;5036689;28;20217;-60
2021/07/20 00:57:00;;;;;;;5.70;4.13;;;;;;;;;;5021429;28;20234;-60
2021/07/20 00:59:26;;;;;;;7.37;4.77;;;;;;;;;;5016975;28;20257;-60
2021/07/20 01:01:52;;;;;;;5.83;3.77;;;;;;;;;;5016994;28;20541;-59
2021/07/20 01:04:17;;;;;;;6.20;4.57;;;;;;;;;;5016475;28;20536;-61
2021/07/20 01:06:43;;;;;;;4.87;4.30;;;;;;;;;;5016940;28;20789;-60
2021/07/20 01:09:09;;;;;;;4.83;4.40;;;;;;;;;;5016404;28;20249;-60
2021/07/20 01:11:35;;;;;;;6.53;5.10;;;;;;;;;;5015902;28;20221;-60
2021/07/20 01:14:03;;;;;;;5.30;4.40;;;;;;;;;;5015400;28;20476;-60
2021/07/20 01:16:30;;;;;;;5.30;4.20;;;;;;;;;;5016745;28;20520;-60
2021/07/20 01:18:56;;;;;;;4.10;3.50;;;;;;;;;;5016174;28;20503;-60
2021/07/20 01:21:25;;;;;;;5.17;3.90;;;;;;;;;;5016503;28;20489;-59
2021/07/20 01:23:52;;;;;;;5.67;4.07;;;;;;;;;;5016474;28;20565;-60
2021/07/20 01:26:18;;;;;;;6.60;4.17;;;;;;;;;;5016048;28;20912;-60
2021/07/20 01:28:44;;;;;;;4.40;3.80;;;;;;;;;;5016569;28;20525;-61
2021/07/20 01:31:12;;;;;;;4.50;4.10;;;;;;;;;;5015003;28;20488;-60
2021/07/20 01:33:41;;;;;;;5.30;4.07;;;;;;;;;;5015472;28;20946;-59
2021/07/20 01:36:07;;;;;;;3.80;3.33;;;;;;;;;;5015904;28;20469;-59
2021/07/20 01:38:34;;;;;;;3.97;3.30;;;;;;;;;;5015219;28;20462;-59
2021/07/20 01:41:06;;;;;;;5.23;4.10;;;;;;;;;;5014814;28;20960;-59
2021/07/20 01:43:32;;;;;;;5.47;4.20;;;;;;;;;;5016277;28;20480;-58
2021/07/20 01:45:58;;;;;;;6.10;3.70;;;;;;;;;;5014915;28;20461;-59
2021/07/20 01:48:25;;;;;;;5.10;3.70;;;;;;;;;;5034809;28;20535;-60
2021/07/20 01:50:50;;;;;;;4.17;3.77;;;;;;;;;;5034825;28;20552;-60
2021/07/20 01:53:16;;;;;;;6.30;4.33;;;;;;;;;;5034354;28;20544;-59
2021/07/20 01:55:41;;;;;;;4.63;3.87;;;;;;;;;;5031377;28;20226;-61
2021/07/20 01:58:07;;;;;;;5.83;4.40;;;;;;;;;;5015497;28;20224;-59
2021/07/20 02:00:32;;;;;;;5.30;4.80;;;;;;;;;;5015932;28;20249;-60
2021/07/20 02:08:27;;;;;;;6.40;4.43;;;;;;;;;;5014595;28;20478;-59
2021/07/20 02:10:54;;;;;;;7.83;4.17;;;;;;;;;;5014798;28;20488;-59
2021/07/20 02:13:20;;;;;;;4.73;4.20;;;;;;;;;;5014181;28;20478;-60
2021/07/20 02:15:47;;;;;;;7.40;4.30;;;;;;;;;;5015482;28;20563;-59
2021/07/20 02:18:13;;;;;;;4.17;3.77;;;;;;;;;;5014966;28;20528;-59
2021/07/20 02:20:42;;;;;;;4.43;4.03;;;;;;;;;;5014306;28;20476;-59
2021/07/20 02:23:08;;;;;;;6.30;4.40;;;;;;;;;;5022067;28;20287;-60
2021/07/20 02:25:34;;;;;;;5.27;4.63;;;;;;;;;;5031213;28;20457;-60
2021/07/20 02:28:00;;;;;;;5.67;4.47;;;;;;;;;;5014007;28;20471;-60
2021/07/20 02:30:25;;;;;;;5.70;4.27;;;;;;;;;;5014288;28;20233;-60
2021/07/20 02:32:51;;;;;;;6.63;4.00;;;;;;;;;;5015243;28;20305;-59
2021/07/20 02:35:24;;;;;;;4.50;3.70;;;;;;;;;;4997365;28;20254;-60
2021/07/20 02:37:50;;;;;;;4.60;4.20;;;;;;;;;;5015182;28;20471;-59
2021/07/20 02:40:17;;;;;;;5.00;3.80;;;;;;;;;;5013826;28;20476;-59
2021/07/20 02:42:43;;;;;;;4.90;3.70;;;;;;;;;;5015214;28;20945;-60
2021/07/20 02:45:09;;;;;;;4.23;3.57;;;;;;;;;;5014762;28;20476;-60
2021/07/20 02:47:35;;;;;;;4.73;4.10;;;;;;;;;;5014976;28;20230;-60
2021/07/20 02:50:06;;;;;;;4.83;4.03;;;;;;;;;;5013742;28;20466;-60
2021/07/20 02:52:32;;;;;;;5.20;3.63;;;;;;;;;;5014020;28;20458;-60
2021/07/20 02:54:58;;;;;;;5.27;3.90;;;;;;;;;;5013982;28;20472;-60
2021/07/20 02:57:24;;;;;;;5.43;4.80;;;;;;;;;;5013528;28;20577;-60
2021/07/20 02:59:49;;;;;;;6.40;4.40;;;;;;;;;;5014936;28;20464;-59
2021/07/20 03:02:15;;;;;;;3.80;3.20;;;;;;;;;;5014616;28;20661;-59
2021/07/20 03:04:40;;;;;;;3.80;3.40;;;;;;;;;;5013831;28;20229;-60
2021/07/20 03:07:08;;;;;;;4.60;4.20;;;;;;;;;;5013455;28;20218;-60
2021/07/20 03:09:34;;;;;;;5.03;3.70;;;;;;;;;;5013719;28;20222;-59
2021/07/20 03:12:05;;;;;;;5.43;3.60;;;;;;;;;;5013790;28;20515;-59
2021/07/20 03:14:31;;;;;;;5.10;4.00;;;;;;;;;;5014338;28;20445;-59
2021/07/20 03:16:57;;;;;;;6.73;3.60;;;;;;;;;;5013601;28;20489;-60
2021/07/20 03:19:25;;;;;;;4.13;3.73;;;;;;;;;;5014149;28;20482;-60
2021/07/20 03:21:52;;;;;;;3.83;3.27;;;;;;;;;;5013493;28;20803;-59
2021/07/20 03:24:18;;;;;;;4.60;3.13;;;;;;;;;;5031311;28;20460;-60
2021/07/20 03:26:44;;;;;;;4.70;3.63;;;;;;;;;;5009568;28;20535;-60
2021/07/20 03:29:11;;;;;;;3.57;3.27;;;;;;;;;;5016222;28;20472;-60
2021/07/20 03:31:37;;;;;;;4.93;4.03;;;;;;;;;;5024383;28;20256;-59
2021/07/20 03:34:03;;;;;;;5.20;3.10;;;;;;;;;;5018124;28;20496;-60
2021/07/20 03:36:29;;;;;;;5.70;3.40;;;;;;;;;;5020610;28;20237;-60
2021/07/20 03:38:54;;;;;;;3.83;3.33;;;;;;;;;;5027259;28;20489;-60
2021/07/20 03:41:21;;;;;;;3.50;3.17;;;;;;;;;;5025824;28;20508;-59
2021/07/20 03:43:47;;;;;;;4.03;3.63;;;;;;;;;;5020628;28;20232;-59
2021/07/20 03:46:13;;;;;;;5.50;3.53;;;;;;;;;;5022705;28;20527;-59
2021/07/20 03:48:40;;;;;;;7.10;3.40;;;;;;;;;;5026808;28;20500;-60
2021/07/20 03:51:06;;;;;;;3.60;3.27;;;;;;;;;;5025524;28;20469;-60
2021/07/20 03:53:31;;;;;;;7.37;3.30;;;;;;;;;;5019002;28;20782;-60
2021/07/20 03:56:01;;;;;;;6.80;3.73;;;;;;;;;;5021262;28;20222;-60
2021/07/20 03:58:27;;;;;;;4.30;3.70;;;;;;;;;;5019749;28;20526;-60
2021/07/20 04:00:55;;;;;;;4.30;3.37;;;;;;;;;;5028591;28;20848;-60
2021/07/20 04:03:26;;;;;;;5.00;4.07;;;;;;;;;;5018968;28;20493;-60
2021/07/20 04:05:57;;;;;;;7.20;3.40;;;;;;;;;;5020662;28;20805;-60
2021/07/20 04:08:23;;;;;;;4.70;3.50;;;;;;;;;;5024445;28;20976;-59
2021/07/20 04:10:50;;;;;;;4.90;3.70;;;;;;;;;;5027206;28;20476;-59
2021/07/20 04:13:16;;;;;;;3.90;3.17;;;;;;;;;;5021709;28;20503;-59
2021/07/20 04:15:50;;;;;;;4.10;3.33;;;;;;;;;;5020283;28;20523;-59
2021/07/20 04:18:16;;;;;;;8.77;3.80;;;;;;;;;;5023004;28;20652;-59
2021/07/20 04:20:43;;;;;;;5.27;4.07;;;;;;;;;;5025836;28;20543;-60
2021/07/20 04:23:08;;;;;;;4.93;3.80;;;;;;;;;;5014363;28;20222;-60
2021/07/20 04:25:37;;;;;;;4.67;3.80;;;;;;;;;;5025534;28;20663;-60
2021/07/20 04:28:05;;;;;;;6.93;4.47;;;;;;;;;;5020958;28;20222;-60
2021/07/20 04:30:31;;;;;;;4.17;3.77;;;;;;;;;;5019561;28;20462;-60
2021/07/20 04:32:58;;;;;;;3.50;2.83;;;;;;;;;;5025141;28;20457;-60
2021/07/20 04:35:25;;;;;;;4.57;4.13;;;;;;;;;;5020985;28;20230;-58
2021/07/20 04:37:51;;;;;;;4.93;3.43;;;;;;;;;;5022206;28;20552;-59
2021/07/20 04:40:16;;;;;;;3.73;3.30;;;;;;;;;;5018704;28;20545;-59
2021/07/20 04:42:42;;;;;;;3.97;3.53;;;;;;;;;;5023843;28;20304;-60
2021/07/20 04:45:09;;;;;;;5.17;3.97;;;;;;;;;;5027161;28;20611;-59
2021/07/20 04:47:38;;;;;;;3.60;3.30;;;;;;;;;;5029689;28;20245;-60
2021/07/20 04:50:07;;;;;;;4.37;3.97;;;;;;;;;;5022562;28;20540;-59
2021/07/20 04:52:33;;;;;;;5.17;4.00;;;;;;;;;;5027663;28;20477;-59
2021/07/20 04:54:59;;;;;;;3.27;2.90;;;;;;;;;;5029075;28;20464;-59
2021/07/20 04:57:24;;;;;;;3.97;3.57;;;;;;;;;;5015695;28;20219;-59
2021/07/20 04:59:50;;;;;;;20.17;18.07;;;;;;;;;;5030597;28;20685;-60
2021/07/20 05:02:16;;;;;;;6.47;5.30;;;;;;;;;;5027922;28;20242;-60
2021/07/20 05:04:43;;;;;;;14.60;11.27;;;;;;;;;;5027328;28;20462;-60
2021/07/20 05:07:10;;;;;;;10.73;9.60;;;;;;;;;;5024296;28;20587;-59
2021/07/20 05:09:36;;;;;;;14.60;13.03;;;;;;;;;;5021732;28;20785;-59
2021/07/20 05:12:01;;;;;;;15.50;10.30;;;;;;;;;;5026834;28;20535;-59
2021/07/20 05:14:27;;;;;;;8.30;7.20;;;;;;;;;;5029352;28;20696;-59
2021/07/20 05:16:53;;;;;;;28.23;23.80;;;;;;;;;;5025363;28;20314;-59
2021/07/20 05:19:18;;;;;;;11.77;9.30;;;;;;;;;;5021553;28;20249;-59
2021/07/20 05:21:44;;;;;;;15.00;11.83;;;;;;;;;;5026716;28;20465;-59
2021/07/20 05:24:10;;;;;;;6.13;5.60;;;;;;;;;;5031171;28;20240;-59
2021/07/20 05:26:37;;;;;;;27.03;21.90;;;;;;;;;;5023630;28;20357;-59
2021/07/20 05:29:03;;;;;;;55.17;42.93;;;;;;;;;;5022587;28;20747;-60
2021/07/20 05:31:30;;;;;;;22.23;15.77;;;;;;;;;;5021939;28;20993;-60
2021/07/20 05:33:55;;;;;;;5.33;4.80;;;;;;;;;;5032588;28;20850;-60
2021/07/20 05:36:20;;;;;;;16.87;15.17;;;;;;;;;;5022186;28;20462;-60
2021/07/20 05:38:46;;;;;;;24.97;20.80;;;;;;;;;;5028492;28;20521;-60
2021/07/20 05:41:11;;;;;;;20.17;16.43;;;;;;;;;;5027059;28;20595;-60
2021/07/20 05:43:37;;;;;;;17.70;12.40;;;;;;;;;;5021012;28;20221;-59
2021/07/20 05:46:03;;;;;;;17.93;15.63;;;;;;;;;;5023249;28;20219;-60
2021/07/20 05:48:28;;;;;;;18.77;15.57;;;;;;;;;;5028929;28;20233;-60
2021/07/20 05:50:58;;;;;;;13.53;11.60;;;;;;;;;;5026428;28;20234;-59
2021/07/20 05:53:28;;;;;;;11.10;9.50;;;;;;;;;;5022280;28;20221;-59
2021/07/20 05:55:59;;;;;;;15.30;11.53;;;;;;;;;;5022847;28;20965;-59
2021/07/20 05:58:25;;;;;;;7.90;6.03;;;;;;;;;;5020594;28;20482;-60
2021/07/20 06:00:52;;;;;;;12.30;9.13;;;;;;;;;;5021975;28;20494;-59
2021/07/20 06:03:21;;;;;;;7.13;6.43;;;;;;;;;;5027653;28;20843;-59
2021/07/20 06:05:51;;;;;;;7.00;6.30;;;;;;;;;;5028706;28;20846;-60
2021/07/20 06:08:18;;;;;;;6.23;4.70;;;;;;;;;;5010254;28;20471;-62
2021/07/20 06:10:51;;;;;;;6.17;5.53;;;;;;;;;;5021209;28;20476;-59
2021/07/20 06:13:17;;;;;;;8.33;5.13;;;;;;;;;;5026919;28;20462;-60
2021/07/20 06:15:46;;;;;;;8.43;6.43;;;;;;;;;;5027938;28;20986;-59
2021/07/20 06:18:11;;;;;;;9.97;6.97;;;;;;;;;;5022174;28;20476;-61
2021/07/20 06:20:37;;;;;;;6.70;5.97;;;;;;;;;;5021256;28;20771;-59
2021/07/20 06:23:03;;;;;;;4.27;3.87;;;;;;;;;;5035097;28;20232;-60
2021/07/20 06:25:29;;;;;;;6.20;5.40;;;;;;;;;;5021360;28;20210;-60
2021/07/20 06:27:56;;;;;;;6.93;4.87;;;;;;;;;;5024176;28;20468;-60
2021/07/20 06:30:21;;;;;;;6.67;5.37;;;;;;;;;;5027249;28;20230;-61
2021/07/20 06:32:47;;;;;;;7.90;5.97;;;;;;;;;;5024143;28;20469;-60
2021/07/20 06:35:13;;;;;;;8.10;4.70;;;;;;;;;;5028688;28;20305;-59
2021/07/20 06:37:41;;;;;;;8.43;5.00;;;;;;;;;;5023179;28;20280;-60
2021/07/20 06:40:08;;;;;;;6.60;4.30;;;;;;;;;;5021322;28;20461;-59
2021/07/20 06:42:34;;;;;;;4.73;4.30;;;;;;;;;;5024297;28;20461;-59
2021/07/20 06:45:00;;;;;;;9.00;4.90;;;;;;;;;;5013645;28;20465;-59
2021/07/20 06:47:26;;;;;;;4.37;3.93;;;;;;;;;;5026134;28;20972;-59
2021/07/20 06:49:51;;;;;;;4.80;4.40;;;;;;;;;;5021186;28;20272;-59
2021/07/20 06:52:17;;;;;;;8.63;4.30;;;;;;;;;;5023433;28;20960;-59
2021/07/20 06:54:43;;;;;;;7.00;4.73;;;;;;;;;;5032925;28;20638;-59
2021/07/20 06:57:12;;;;;;;7.30;4.57;;;;;;;;;;5024923;28;20472;-59
2021/07/20 06:59:38;;;;;;;4.20;3.50;;;;;;;;;;5027561;28;20466;-59
2021/07/20 07:02:05;;;;;;;4.60;4.20;;;;;;;;;;5025083;28;20527;-59
2021/07/20 07:04:43;;;;;;;5.03;3.90;;;;;;;;;;5019696;28;20465;-60
2021/07/20 07:07:08;;;;;;;8.47;4.43;;;;;;;;;;5021538;28;20952;-60
2021/07/20 07:09:34;;;;;;;6.03;3.53;;;;;;;;;;5027293;28;20556;-59
2021/07/20 07:12:00;;;;;;;3.80;2.93;;;;;;;;;;5025113;28;20236;-59
2021/07/20 07:14:28;;;;;;;8.33;4.30;;;;;;;;;;5019555;28;20279;-60
2021/07/20 07:16:54;;;;;;;4.30;3.83;;;;;;;;;;5021436;28;20258;-60
2021/07/20 07:19:20;;;;;;;5.60;3.70;;;;;;;;;;5026951;28;20504;-61
2021/07/20 07:21:47;;;;;;;4.97;3.70;;;;;;;;;;5026086;28;20566;-60
2021/07/20 07:24:14;;;;;;;3.73;3.40;;;;;;;;;;5019641;28;20465;-60
2021/07/20 07:26:41;;;;;;;5.90;4.37;;;;;;;;;;5032666;28;20800;-60
2021/07/20 07:29:08;;;;;;;4.70;4.23;;;;;;;;;;5020214;28;20540;-59
2021/07/20 07:31:33;;;;;;;5.43;3.33;;;;;;;;;;5019538;28;20544;-59
2021/07/20 07:33:59;;;;;;;5.03;3.50;;;;;;;;;;5031824;28;20471;-60
2021/07/20 07:36:25;;;;;;;3.53;3.10;;;;;;;;;;5020469;28;20682;-60
2021/07/20 07:38:50;;;;;;;5.83;3.70;;;;;;;;;;5026525;28;20218;-59
2021/07/20 07:41:16;;;;;;;3.30;3.00;;;;;;;;;;5025539;28;20469;-60
2021/07/20 07:43:42;;;;;;;7.93;4.70;;;;;;;;;;5019163;28;20218;-60
2021/07/20 07:46:08;;;;;;;7.30;3.30;;;;;;;;;;5022323;28;20225;-59
2021/07/20 07:48:37;;;;;;;3.93;3.30;;;;;;;;;;5027355;28;20465;-59
2021/07/20 07:51:04;;;;;;;5.00;3.50;;;;;;;;;;5025516;28;20362;-59
2021/07/20 07:53:29;;;;;;;3.40;2.77;;;;;;;;;;5016340;28;20466;-60
2021/07/20 07:56:21;;;;;;;5.83;3.97;;;;;;;;;;5003835;28;20466;-60
2021/07/20 07:58:47;;;;;;;5.63;3.90;;;;;;;;;;5008712;28;20649;-60
2021/07/20 08:01:13;;;;;;;3.73;3.40;;;;;;;;;;5020477;28;20480;-59
2021/07/20 08:03:41;;;;;;;10.67;3.97;;;;;;;;;;5025596;28;20218;-60
2021/07/20 08:06:07;;;;;;;4.27;3.63;;;;;;;;;;5026021;28;20462;-60
2021/07/20 08:08:37;;;;;;;4.30;3.30;;;;;;;;;;5011862;28;21002;-60
2021/07/20 08:11:04;;;;;;;5.73;3.60;;;;;;;;;;5020169;28;20250;-60
2021/07/20 08:13:31;;;;;;;4.40;4.00;;;;;;;;;;5024697;28;20466;-59
2021/07/20 08:15:57;;;;;;;4.33;3.93;;;;;;;;;;5025935;28;20551;-59
2021/07/20 08:18:24;;;;;;;6.67;4.83;;;;;;;;;;5021229;28;20530;-60
2021/07/20 08:20:55;;;;;;;4.43;3.90;;;;;;;;;;5020697;28;20507;-60
2021/07/20 08:23:20;;;;;;;4.40;3.70;;;;;;;;;;5035409;28;21023;-60
2021/07/20 08:25:48;;;;;;;6.47;3.80;;;;;;;;;;5023418;28;20520;-59
2021/07/20 08:28:42;;;;;;;4.83;3.47;;;;;;;;;;5032187;28;20234;-59
2021/07/20 08:31:08;;;;;;;6.10;4.17;;;;;;;;;;5015831;28;20484;-60
2021/07/20 08:33:34;;;;;;;6.37;4.20;;;;;;;;;;5023618;28;20562;-59
2021/07/20 08:36:01;;;;;;;4.23;3.60;;;;;;;;;;5027429;28;20473;-59
2021/07/20 08:38:27;;;;;;;5.70;3.97;;;;;;;;;;5029115;28;20445;-59
2021/07/20 08:41:18;;;;;;;6.53;5.13;;;;;;;;;;5025700;28;20473;-59
2021/07/20 08:43:50;;;;;;;4.90;4.40;;;;;;;;;;5022250;28;20225;-60
2021/07/20 08:47:10;;;;;;;6.27;4.40;;;;;;;;;;5022295;28;20453;-60
2021/07/20 08:50:04;;;;;;;5.80;3.83;;;;;;;;;;4946626;28;20483;-59
2021/07/20 08:52:42;;;;;;;5.90;3.70;;;;;;;;;;4964934;28;20452;-59
2021/07/20 08:55:22;;;;;;;4.23;3.70;;;;;;;;;;5010645;28;20526;-60
2021/07/20 08:57:50;;;;;;;3.40;3.10;;;;;;;;;;5014980;28;20539;-60
2021/07/20 09:00:22;;;;;;;7.50;3.90;;;;;;;;;;5021772;28;20944;-59
2021/07/20 09:02:55;;;;;;;4.87;3.73;;;;;;;;;;5024357;28;20481;-60
2021/07/20 09:05:31;;;;;;;5.10;3.53;;;;;;;;;;5026358;28;20460;-60
2021/07/20 09:08:00;;;;;;;3.70;3.20;;;;;;;;;;5026148;28;20464;-61
2021/07/20 09:10:38;;;;;;;4.30;2.80;;;;;;;;;;5028973;28;20464;-60
2021/07/20 09:13:03;;;;;;;4.43;3.43;;;;;;;;;;5023672;28;20460;-60
2021/07/20 09:15:29;;;;;;;5.00;3.50;;;;;;;;;;5027791;28;20843;-60
2021/07/20 09:18:04;;;;;;;6.40;3.60;;;;;;;;;;5022791;28;20225;-60
2021/07/20 09:20:32;;;;;;;3.97;3.57;;;;;;;;;;5037994;28;20221;-60
2021/07/20 09:23:01;;;;;;;5.50;4.10;;;;;;;;;;5034060;28;20461;-60
2021/07/20 09:25:50;;;;;;;4.43;4.03;;;;;;;;;;5034623;28;20458;-64
2021/07/20 09:28:22;;;;;;;6.10;3.60;;;;;;;;;;5022950;28;20457;-64
2021/07/20 09:30:50;;;;;;;6.07;4.33;;;;;;;;;;5022397;28;20468;-65
2021/07/20 09:33:33;;;;;;;4.47;4.07;;;;;;;;;;5021869;28;20461;-63
2021/07/20 09:36:07;;;;;;;5.10;3.70;;;;;;;;;;5025259;28;20846;-64
2021/07/20 09:38:50;;;;;;;6.13;3.83;;;;;;;;;;5029212;28;20446;-65
2021/07/20 09:41:33;;;;;;;4.47;3.20;;;;;;;;;;5028599;28;20461;-64
2021/07/20 09:44:01;;;;;;;5.60;3.33;;;;;;;;;;5023869;28;20452;-65
2021/07/20 09:46:32;;;;;;;5.90;3.80;;;;;;;;;;5023306;28;20441;-66
2021/07/20 09:49:01;;;;;;;9.20;3.20;;;;;;;;;;5026090;28;20464;-64
2021/07/20 09:51:29;;;;;;;4.10;3.50;;;;;;;;;;5027523;28;20549;-65
2021/07/20 09:54:11;;;;;;;7.03;3.87;;;;;;;;;;5019784;28;20540;-63
2021/07/20 09:56:49;;;;;;;5.93;3.80;;;;;;;;;;5029492;28;20453;-64
2021/07/20 09:59:39;;;;;;;4.60;3.50;;;;;;;;;;5020633;28;20858;-64
2021/07/20 10:02:20;;;;;;;4.70;3.90;;;;;;;;;;5024860;28;20461;-64
2021/07/20 10:04:52;;;;;;;6.47;3.60;;;;;;;;;;5044176;28;20457;-63
2021/07/20 10:07:35;;;;;;;4.57;3.40;;;;;;;;;;5017165;28;20453;-65
2021/07/20 10:10:16;;;;;;;5.97;3.60;;;;;;;;;;5008836;28;20976;-64
2021/07/20 10:13:04;;;;;;;4.83;3.33;;;;;;;;;;5028166;28;20600;-63
2021/07/20 10:15:43;;;;;;;5.70;3.60;;;;;;;;;;5022662;28;20477;-64
2021/07/20 10:18:18;;;;;;;7.27;3.90;;;;;;;;;;5014352;28;20457;-64
2021/07/20 10:20:49;;;;;;;4.03;3.20;;;;;;;;;;5018913;28;20974;-65
2021/07/20 10:23:22;;;;;;;4.27;3.07;;;;;;;;;;5013307;28;20492;-66
2021/07/20 10:26:10;;;;;;;14.47;13.00;;;;;;;;;;5015068;28;20460;-63
2021/07/20 10:28:47;;;;;;;22.13;19.93;;;;;;;;;;5012700;28;20469;-63
2021/07/20 10:31:16;;;;;;;14.10;11.63;;;;;;;;;;5023488;28;20468;-65
2021/07/20 10:33:49;;;;;;;14.33;12.40;;;;;;;;;;5029276;28;20540;-64
2021/07/20 10:36:19;;;;;;;8.07;6.90;;;;;;;;;;5023136;28;20802;-62
2021/07/20 10:38:51;;;;;;;8.07;5.00;;;;;;;;;;5026959;28;20596;-63
2021/07/20 10:41:21;;;;;;;9.13;6.57;;;;;;;;;;5026976;28;20544;-63
2021/07/20 10:44:00;;;;;;;4.50;4.00;;;;;;;;;;5020032;28;20469;-64
2021/07/20 10:46:29;;;;;;;7.30;5.20;;;;;;;;;;5022228;28;20522;-63
2021/07/20 10:49:01;;;;;;;7.77;4.80;;;;;;;;;;5024571;28;20936;-65
2021/07/20 10:51:29;;;;;;;6.83;6.03;;;;;;;;;;5027066;28;20462;-63
2021/07/20 10:53:59;;;;;;;9.80;8.90;;;;;;;;;;5017285;28;20905;-63
2021/07/20 10:56:39;;;;;;;9.10;6.17;;;;;;;;;;5025300;28;20468;-65
2021/07/20 10:59:42;;;;;;;24.73;21.93;;;;;;;;;;5022017;28;20941;-64
2021/07/20 11:02:44;;;;;;;6.10;5.50;;;;;;;;;;5015647;28;20436;-63
2021/07/20 11:05:10;;;;;;;16.43;12.57;;;;;;;;;;5012642;28;20444;-63
2021/07/20 11:07:45;;;;;;;18.57;14.10;;;;;;;;;;5020941;28;20934;-63
2021/07/20 11:10:13;;;;;;;13.73;12.17;;;;;;;;;;5022904;28;20958;-63
2021/07/20 11:12:41;;;;;;;14.17;11.63;;;;;;;;;;5027815;28;20461;-62
2021/07/20 11:15:06;;;;;;;9.90;8.30;;;;;;;;;;5023455;28;20464;-63
2021/07/20 11:17:33;;;;;;;12.30;9.27;;;;;;;;;;5020640;28;20483;-64
2021/07/20 11:20:01;;;;;;;13.60;8.70;;;;;;;;;;5022367;28;20560;-64
2021/07/20 11:22:27;;;;;;;9.53;7.10;;;;;;;;;;5029322;28;20457;-64
2021/07/20 11:24:52;;;;;;;11.73;8.23;;;;;;;;;;5032810;28;20940;-65
2021/07/20 11:27:20;;;;;;;12.50;5.50;;;;;;;;;;5032838;28;20228;-64
2021/07/20 11:29:46;;;;;;;7.27;5.40;;;;;;;;;;5032981;28;20225;-64
2021/07/20 11:32:18;;;;;;;6.37;5.53;;;;;;;;;;5019216;28;20816;-63
2021/07/20 11:34:46;;;;;;;8.17;5.60;;;;;;;;;;5031168;28;20236;-63
2021/07/20 11:37:15;;;;;;;6.37;5.03;;;;;;;;;;5018948;28;20460;-64
2021/07/20 11:39:48;;;;;;;5.30;4.33;;;;;;;;;;5019681;28;20981;-64
2021/07/20 11:42:25;;;;;;;7.83;4.77;;;;;;;;;;5007800;28;20460;-63
2021/07/20 11:44:53;;;;;;;7.33;4.20;;;;;;;;;;5019989;28;20488;-63
2021/07/20 11:47:25;;;;;;;5.40;4.57;;;;;;;;;;5030987;28;20548;-63
2021/07/20 11:50:00;;;;;;;9.90;4.40;;;;;;;;;;5018952;28;20465;-64
2021/07/20 11:52:44;;;;;;;5.63;3.73;;;;;;;;;;5021955;28;20452;-64
2021/07/20 11:55:30;;;;;;;4.67;4.10;;;;;;;;;;5015320;28;20431;-64
2021/07/20 11:58:00;;;;;;;6.50;4.50;;;;;;;;;;5023374;28;20497;-63
2021/07/20 12:00:29;;;;;;;5.47;4.97;;;;;;;;;;5013211;28;20465;-63
2021/07/20 12:03:31;;;;;;;8.47;5.10;;;;;;;;;;5019752;28;20971;-63
2021/07/20 12:06:31;;;;;;;5.60;4.97;;;;;;;;;;5019846;28;20460;-63
2021/07/20 12:09:42;;;;;;;6.37;3.80;;;;;;;;;;4989412;28;20457;-63
2021/07/20 12:12:08;;;;;;;5.10;4.53;;;;;;;;;;5020299;28;20468;-63
2021/07/20 12:14:34;;;;;;;9.03;5.50;;;;;;;;;;5027055;28;20461;-64
2021/07/20 12:16:59;;;;;;;7.40;3.90;;;;;;;;;;5025897;28;20229;-64
2021/07/20 12:19:30;;;;;;;5.63;4.20;;;;;;;;;;5010325;28;20482;-63
2021/07/20 12:22:03;;;;;;;5.37;3.50;;;;;;;;;;5019590;28;20272;-62
2021/07/20 12:24:29;;;;;;;5.30;2.90;;;;;;;;;;5033196;28;20854;-63
2021/07/20 12:26:54;;;;;;;7.60;3.97;;;;;;;;;;5031294;28;20548;-63
2021/07/20 12:29:20;;;;;;;4.23;3.80;;;;;;;;;;5033281;28;20221;-63
2021/07/20 12:31:47;;;;;;;5.30;3.37;;;;;;;;;;5019889;28;20248;-63
2021/07/20 12:34:12;;;;;;;3.87;3.43;;;;;;;;;;5029877;28;20236;-63
2021/07/20 12:36:39;;;;;;;4.07;3.67;;;;;;;;;;5018939;28;20470;-63
2021/07/20 12:39:10;;;;;;;3.73;3.37;;;;;;;;;;5024909;28;20231;-63
2021/07/20 12:41:36;;;;;;;3.67;3.10;;;;;;;;;;5026719;28;20468;-64
2021/07/20 12:44:03;;;;;;;3.80;3.27;;;;;;;;;;5022169;28;20525;-64
2021/07/20 12:46:29;;;;;;;6.87;3.77;;;;;;;;;;5021197;28;20456;-64
2021/07/20 12:48:55;;;;;;;6.50;3.90;;;;;;;;;;5024040;28;20538;-63
2021/07/20 12:51:23;;;;;;;3.93;3.13;;;;;;;;;;5026519;28;20544;-63
2021/07/20 12:53:50;;;;;;;5.40;4.07;;;;;;;;;;5017051;28;20937;-64
2021/07/20 12:56:29;;;;;;;4.00;3.37;;;;;;;;;;5022091;28;20458;-64
2021/07/20 12:59:00;;;;;;;4.33;3.47;;;;;;;;;;5021977;28;20465;-63
2021/07/20 13:01:26;;;;;;;4.70;2.97;;;;;;;;;;5026339;28;20927;-63
2021/07/20 13:03:52;;;;;;;4.53;3.33;;;;;;;;;;5024912;28;20800;-63
2021/07/20 13:06:19;;;;;;;3.73;3.30;;;;;;;;;;5020956;28;20457;-64
2021/07/20 13:08:45;;;;;;;3.63;3.07;;;;;;;;;;5025263;28;20222;-64
2021/07/20 13:11:11;;;;;;;5.23;4.00;;;;;;;;;;5029665;28;20813;-63
2021/07/20 13:13:37;;;;;;;3.00;2.70;;;;;;;;;;5026905;28;20457;-64
2021/07/20 13:16:04;;;;;;;3.70;3.40;;;;;;;;;;5022647;28;21046;-63
2021/07/20 13:18:29;;;;;;;4.50;4.10;;;;;;;;;;5025142;28;20233;-64
2021/07/20 13:20:56;;;;;;;4.47;3.63;;;;;;;;;;5029153;28;20474;-65
2021/07/20 13:23:24;;;;;;;3.60;3.27;;;;;;;;;;5016983;28;20253;-64
2021/07/20 13:25:52;;;;;;;4.30;3.53;;;;;;;;;;5032362;28;20471;-64
2021/07/20 13:28:19;;;;;;;3.93;3.47;;;;;;;;;;5035772;28;20488;-64
2021/07/20 13:30:44;;;;;;;5.40;3.60;;;;;;;;;;5028433;28;20565;-64
2021/07/20 13:33:10;;;;;;;4.63;4.00;;;;;;;;;;5027082;28;20511;-63
2021/07/20 13:35:35;;;;;;;3.97;3.53;;;;;;;;;;5029184;28;20276;-64
2021/07/20 13:38:01;;;;;;;3.33;3.03;;;;;;;;;;5028846;28;20217;-63
2021/07/20 13:40:27;;;;;;;5.53;3.53;;;;;;;;;;5022260;28;20347;-64
2021/07/20 13:42:52;;;;;;;4.20;2.93;;;;;;;;;;5023472;28;20554;-64
2021/07/20 13:45:19;;;;;;;4.17;3.03;;;;;;;;;;5028093;28;20293;-64
2021/07/20 13:48:01;;;;;;;3.33;2.97;;;;;;;;;;5030331;28;20226;-64
2021/07/20 13:50:31;;;;;;;3.27;2.97;;;;;;;;;;5010915;28;22163;-63
2021/07/20 13:52:58;;;;;;;4.53;3.13;;;;;;;;;;5022610;28;20568;-64
2021/07/20 13:55:28;;;;;;;3.43;2.70;;;;;;;;;;5025215;28;20452;-64
2021/07/20 13:57:54;;;;;;;4.20;3.37;;;;;;;;;;5029557;28;20989;-64
2021/07/20 14:00:19;;;;;;;5.60;3.37;;;;;;;;;;5024881;28;20602;-63
2021/07/20 14:02:45;;;;;;;3.63;3.30;;;;;;;;;;5022102;28;20234;-65
2021/07/20 14:05:11;;;;;;;3.90;3.40;;;;;;;;;;5024958;28;20226;-64
2021/07/20 14:07:36;;;;;;;4.60;4.20;;;;;;;;;;5028138;28;20218;-65
2021/07/20 14:10:04;;;;;;;4.13;3.50;;;;;;;;;;5023929;28;20233;-64
2021/07/20 14:12:30;;;;;;;7.23;3.80;;;;;;;;;;5021686;28;20233;-64
2021/07/20 14:14:57;;;;;;;7.27;3.17;;;;;;;;;;5025923;28;20465;-63
2021/07/20 14:17:24;;;;;;;6.07;3.63;;;;;;;;;;5027332;28;20480;-64
2021/07/20 14:19:50;;;;;;;5.03;3.97;;;;;;;;;;5023866;28;20563;-63
2021/07/20 14:22:19;;;;;;;5.77;3.57;;;;;;;;;;5020588;28;20456;-64
2021/07/20 14:24:46;;;;;;;4.10;3.80;;;;;;;;;;5024871;28;20544;-65
2021/07/20 14:27:13;;;;;;;4.77;4.17;;;;;;;;;;5031852;28;20464;-64
2021/07/20 14:29:41;;;;;;;4.23;3.77;;;;;;;;;;5034113;28;20492;-63
2021/07/20 14:32:15;;;;;;;3.93;3.50;;;;;;;;;;5021281;28;20484;-64
2021/07/20 14:34:52;;;;;;;5.83;4.57;;;;;;;;;;5032767;28;20548;-63
2021/07/20 14:37:29;;;;;;;5.07;4.30;;;;;;;;;;5021078;28;20476;-64
2021/07/20 14:39:55;;;;;;;5.13;4.27;;;;;;;;;;5021096;28;20999;-64
2021/07/20 14:42:23;;;;;;;5.97;4.17;;;;;;;;;;5026668;28;20477;-64
2021/07/20 14:44:48;;;;;;;4.80;3.67;;;;;;;;;;5027974;28;20317;-64
2021/07/20 14:47:32;;;;;;;9.50;4.40;;;;;;;;;;5015100;28;20544;-64
2021/07/20 14:50:20;;;;;;;5.17;4.23;;;;;;;;;;5028224;28;20226;-63
2021/07/20 14:52:52;;;;;;;6.17;4.20;;;;;;;;;;5026970;28;20480;-63
2021/07/20 14:55:37;;;;;;;4.90;4.50;;;;;;;;;;5020479;28;20524;-64
2021/07/20 14:58:16;;;;;;;5.73;4.60;;;;;;;;;;5027422;28;20456;-64